LFTW/FNI METAR and TAF weather

Enter ICAO airport designator
Station Type Date Time Source
LFTW METAR 2019/10/15 21:00 UTC NOAA

LFTW 152100Z AUTO VRB03KT CAVOK 13/07 Q1018


Station Type Date Time Source
LFTW Decoded METAR 2019/10/15 21:00 UTC NOAA

Nimes / Garons, France (LFTW) 43-45N 004-25E 96M
Oct 15, 2019 - 05:00 PM EDT / 2019.10.15 2100 UTC
Wind: Variable at 3 MPH (3 KT):0
Visibility: greater than 7 mile(s):0
Temperature: 55 F (13 C)
Dew Point: 44 F (7 C)
Relative Humidity: 66%
Pressure (altimeter): 30.06 in. Hg (1018 hPa)
ob: LFTW 152100Z AUTO VRB03KT CAVOK 13/07 Q1018
cycle: 21

Station Type Date Time Source
LFTW TAF 2019/10/15 19:07 UTC NOAA

TAF LFTW 151900Z 1519/1615 CNL

Example: see airport list